Time;durP1;ratioP1;P1;durP2;ratioP2;P2;SDS_P1;SDS_P2;PMS_P1;PMS_P2;Temp;Humidity;BMP_temperature;BMP_pressure;BME280_temperature;BME280_humidity;BME280_pressure;Samples;Min_cycle;Max_cycle;Signal;HPM_P1;HPM_P2
2022/11/08 00:01:33;;;;;;;8.32;2.28;;;14.40;99.90;;;;;;6185921;23;20048;-82
2022/11/08 00:04:01;;;;;;;12.50;2.70;;;14.40;99.90;;;;;;6184816;23;20080;-83
2022/11/08 00:14:40;;;;;;;10.55;2.60;;;14.20;99.90;;;;;;6184763;23;20067;-82
2022/11/08 00:17:06;;;;;;;11.27;2.10;;;14.20;99.90;;;;;;6159566;23;20013;-82
2022/11/08 00:19:32;;;;;;;12.13;2.13;;;14.10;99.90;;;;;;6184551;23;20012;-81
2022/11/08 00:21:57;;;;;;;6.85;2.17;;;14.10;99.90;;;;;;6134776;23;20005;-82
2022/11/08 00:24:23;;;;;;;10.07;2.65;;;14.00;99.90;;;;;;6134971;23;20017;-82
2022/11/08 00:26:49;;;;;;;11.52;2.13;;;14.00;99.90;;;;;;6159501;23;20012;-82
2022/11/08 00:29:14;;;;;;;9.60;3.22;;;14.00;99.90;;;;;;6159599;23;20005;-82
2022/11/08 00:31:42;;;;;;;9.80;2.17;;;14.00;99.90;;;;;;6185907;23;20005;-82
2022/11/08 00:34:07;;;;;;;7.25;2.70;;;14.00;99.90;;;;;;6184171;23;20443;-83
2022/11/08 00:36:33;;;;;;;8.15;2.53;;;14.00;99.90;;;;;;6159608;23;20013;-83
2022/11/08 00:38:59;;;;;;;9.65;1.90;;;13.90;99.90;;;;;;6163671;23;20009;-83
2022/11/08 00:41:26;;;;;;;8.93;2.05;;;13.90;99.90;;;;;;6165132;23;20017;-83
2022/11/08 00:43:51;;;;;;;8.52;2.22;;;13.80;99.90;;;;;;6214190;23;20079;-83
2022/11/08 00:46:17;;;;;;;12.00;2.50;;;13.80;99.90;;;;;;6166070;23;20467;-82
2022/11/08 00:48:45;;;;;;;9.68;2.40;;;13.80;99.90;;;;;;6217686;23;20383;-81
2022/11/08 00:51:11;;;;;;;12.20;2.83;;;13.80;99.90;;;;;;6166635;23;20013;-82
2022/11/08 00:53:38;;;;;;;10.93;2.85;;;13.70;99.90;;;;;;6191287;23;20005;-82
2022/11/08 00:56:06;;;;;;;9.25;2.10;;;13.70;99.90;;;;;;6191093;23;20103;-82
2022/11/08 00:58:32;;;;;;;10.00;2.08;;;13.70;99.90;;;;;;6191089;23;20005;-82
2022/11/08 01:00:58;;;;;;;9.38;2.45;;;13.70;99.90;;;;;;6191851;23;20124;-82
2022/11/08 01:03:24;;;;;;;9.93;2.35;;;13.60;99.90;;;;;;6166547;23;20012;-82
2022/11/08 01:05:52;;;;;;;10.90;2.53;;;13.60;99.90;;;;;;6191132;23;20083;-82
2022/11/08 01:08:20;;;;;;;10.10;2.60;;;13.60;99.90;;;;;;6191796;23;20008;-82
2022/11/08 01:10:49;;;;;;;8.80;2.22;;;13.60;99.90;;;;;;6217658;23;20052;-82
2022/11/08 01:13:15;;;;;;;10.73;2.42;;;13.60;99.90;;;;;;6191362;23;20060;-82
2022/11/08 01:15:43;;;;;;;8.73;2.53;;;13.50;99.90;;;;;;6217834;23;20051;-82
2022/11/08 01:18:11;;;;;;;7.13;2.47;;;13.50;99.90;;;;;;6191115;23;20317;-82
2022/11/08 01:20:38;;;;;;;8.55;2.47;;;13.40;99.90;;;;;;6191092;23;20020;-85
2022/11/08 01:23:04;;;;;;;10.88;2.50;;;13.40;99.90;;;;;;6191149;23;20388;-86
2022/11/08 01:25:30;;;;;;;11.18;2.40;;;13.40;99.90;;;;;;6166176;23;20063;-86
2022/11/08 01:27:56;;;;;;;11.20;2.60;;;13.40;99.90;;;;;;6216098;23;20084;-85
2022/11/08 01:30:21;;;;;;;11.13;2.10;;;13.40;99.90;;;;;;6190783;23;20024;-86
2022/11/08 01:32:47;;;;;;;10.48;2.55;;;13.30;99.90;;;;;;6217524;23;20474;-86
2022/11/08 01:35:13;;;;;;;12.70;2.45;;;13.40;99.90;;;;;;6166339;23;20364;-86
2022/11/08 01:37:39;;;;;;;11.15;2.50;;;13.30;99.90;;;;;;6190863;23;19996;-82
2022/11/08 01:40:06;;;;;;;11.43;2.95;;;13.30;99.90;;;;;;6190134;23;20016;-82
2022/11/08 01:42:32;;;;;;;9.27;2.67;;;13.30;99.90;;;;;;6217110;23;20019;-82
2022/11/08 01:45:06;;;;;;;10.23;2.65;;;13.30;99.90;;;;;;6165731;23;20011;-82
2022/11/08 01:47:32;;;;;;;12.25;2.58;;;13.20;99.90;;;;;;6218213;23;20008;-82
2022/11/08 01:50:04;;;;;;;8.60;2.53;;;13.30;99.90;;;;;;6165709;23;20009;-82
2022/11/08 01:52:34;;;;;;;7.53;2.20;;;13.20;99.90;;;;;;6190585;23;20328;-82
2022/11/08 01:55:16;;;;;;;10.32;2.10;;;13.20;99.90;;;;;;6190694;23;20031;-86
2022/11/08 01:58:05;;;;;;;11.10;2.30;;;13.20;99.90;;;;;;6190818;23;20000;-86
2022/11/08 02:00:30;;;;;;;8.13;2.35;;;13.10;99.90;;;;;;6217221;23;20421;-85
2022/11/08 02:02:59;;;;;;;9.55;2.85;;;13.10;99.90;;;;;;6217437;23;20001;-86
2022/11/08 02:05:27;;;;;;;8.68;2.28;;;13.10;99.90;;;;;;6217830;23;20004;-86
2022/11/08 02:08:30;;;;;;;10.15;2.88;;;13.10;99.90;;;;;;6190551;23;20005;-86
2022/11/08 02:10:56;;;;;;;6.75;2.08;;;13.10;99.90;;;;;;6203195;23;20020;-81
2022/11/08 02:13:28;;;;;;;8.32;2.15;;;13.10;99.90;;;;;;6213836;23;20031;-82
2022/11/08 02:15:54;;;;;;;6.75;2.28;;;13.10;99.90;;;;;;6203780;23;20031;-82
2022/11/08 02:18:23;;;;;;;8.27;2.10;;;13.10;99.90;;;;;;6178009;23;20065;-81
2022/11/08 02:21:14;;;;;;;6.93;2.15;;;13.10;99.90;;;;;;6227544;23;20005;-81
2022/11/08 02:23:57;;;;;;;12.30;2.42;;;13.10;99.90;;;;;;6196455;23;20001;-82
2022/11/08 02:26:29;;;;;;;9.43;1.77;;;13.20;99.90;;;;;;6190902;23;20411;-81
2022/11/08 02:28:55;;;;;;;16.85;3.42;;;13.10;99.90;;;;;;6216962;23;20001;-81
2022/11/08 02:34:47;;;;;;;10.50;2.17;;;13.20;99.90;;;;;;6216780;23;20451;-81
2022/11/08 02:37:18;;;;;;;7.00;2.13;;;13.20;99.90;;;;;;6217518;23;20000;-81
2022/11/08 02:39:45;;;;;;;8.18;2.10;;;13.20;99.90;;;;;;6217268;23;20005;-81
2022/11/08 02:42:17;;;;;;;8.80;2.00;;;13.20;99.90;;;;;;6215181;23;20020;-82
2022/11/08 02:45:33;;;;;;;8.25;1.90;;;13.10;99.90;;;;;;6190283;23;20066;-82
2022/11/08 02:48:15;;;;;;;10.88;2.40;;;13.20;99.90;;;;;;6215318;23;20443;-81
2022/11/08 02:50:40;;;;;;;8.35;2.15;;;13.20;99.90;;;;;;6165093;23;20008;-81
2022/11/08 02:53:07;;;;;;;9.98;2.30;;;13.20;99.90;;;;;;6165160;23;20011;-81
2022/11/08 02:55:33;;;;;;;7.40;2.20;;;13.20;99.90;;;;;;6216647;23;20420;-80
2022/11/08 02:58:00;;;;;;;11.27;2.28;;;13.30;99.90;;;;;;6189934;23;20001;-81
2022/11/08 03:00:26;;;;;;;10.93;2.35;;;13.20;99.90;;;;;;6190172;23;20015;-84
2022/11/08 03:02:56;;;;;;;11.35;2.47;;;13.20;99.90;;;;;;6190506;23;20001;-84
2022/11/08 03:05:24;;;;;;;9.13;2.92;;;13.20;99.90;;;;;;6217873;23;20027;-84
2022/11/08 03:07:50;;;;;;;10.18;2.40;;;13.20;99.90;;;;;;6190414;23;20457;-84
2022/11/08 03:10:16;;;;;;;6.25;1.90;;;13.20;99.90;;;;;;6215654;23;20004;-84
2022/11/08 03:12:43;;;;;;;7.40;2.10;;;13.20;99.90;;;;;;6190326;23;20007;-84
2022/11/08 03:15:11;;;;;;;6.70;2.00;;;13.20;99.90;;;;;;6189893;23;20005;-84
2022/11/08 03:17:37;;;;;;;8.25;2.10;;;13.20;99.90;;;;;;6189809;23;20055;-80
2022/11/08 03:20:03;;;;;;;7.38;2.28;;;13.10;99.90;;;;;;6164897;23;20440;-80
2022/11/08 03:22:29;;;;;;;6.35;2.00;;;13.10;99.90;;;;;;6189523;23;20000;-80
2022/11/08 03:24:55;;;;;;;9.98;2.65;;;13.10;99.90;;;;;;6164895;23;20019;-80
2022/11/08 03:27:20;;;;;;;8.75;2.53;;;13.10;99.90;;;;;;6190447;23;20004;-80
2022/11/08 03:29:47;;;;;;;8.00;2.40;;;13.10;99.90;;;;;;6216281;23;20086;-80
2022/11/08 03:32:14;;;;;;;10.82;2.10;;;13.10;99.90;;;;;;6216156;23;20012;-80
2022/11/08 03:34:39;;;;;;;8.57;1.95;;;13.10;99.90;;;;;;6190096;23;20015;-80
2022/11/08 03:37:07;;;;;;;7.85;2.05;;;13.10;99.90;;;;;;6189597;23;20083;-80
2022/11/08 03:39:32;;;;;;;7.28;2.03;;;13.00;99.90;;;;;;6189671;23;20008;-80
2022/11/08 03:42:01;;;;;;;6.88;1.55;;;13.10;99.90;;;;;;6164526;23;20104;-80
2022/11/08 03:44:28;;;;;;;5.82;1.90;;;13.00;99.90;;;;;;6190335;23;20079;-80
2022/11/08 03:46:54;;;;;;;9.38;2.00;;;13.00;99.90;;;;;;6216132;23;20004;-80
2022/11/08 03:49:20;;;;;;;11.20;2.03;;;13.00;99.90;;;;;;6216167;23;20324;-80
2022/11/08 03:51:46;;;;;;;7.80;2.10;;;13.00;99.90;;;;;;6164743;23;20013;-80
2022/11/08 03:54:12;;;;;;;6.32;2.13;;;13.00;99.90;;;;;;6164757;23;20435;-80
2022/11/08 03:56:38;;;;;;;7.78;2.25;;;13.00;99.90;;;;;;6164983;23;20050;-80
2022/11/08 03:59:03;;;;;;;9.82;2.63;;;13.00;99.90;;;;;;6164701;23;20079;-80
2022/11/08 04:01:29;;;;;;;6.93;2.45;;;13.00;99.90;;;;;;6189664;23;20012;-80
2022/11/08 04:03:58;;;;;;;6.63;2.00;;;13.00;99.90;;;;;;6214577;23;20082;-80
2022/11/08 04:06:24;;;;;;;7.82;2.15;;;13.00;99.90;;;;;;6165496;23;20075;-80
2022/11/08 04:08:50;;;;;;;8.65;2.20;;;13.00;99.90;;;;;;6164736;23;20466;-81
2022/11/08 04:16:43;;;;;;;9.45;1.85;;;13.00;99.90;;;;;;6193490;23;20083;-81
2022/11/08 04:21:54;;;;;;;10.88;2.53;;;12.90;99.90;;;;;;6172361;23;20024;-80
2022/11/08 04:24:20;;;;;;;6.57;2.00;;;12.90;99.90;;;;;;6194268;23;20067;-84
2022/11/08 04:26:46;;;;;;;9.80;2.20;;;12.90;99.90;;;;;;6205419;23;20091;-84
2022/11/08 04:29:12;;;;;;;7.70;1.77;;;12.80;99.90;;;;;;6205649;23;20027;-84
2022/11/08 04:31:39;;;;;;;7.22;1.90;;;12.80;99.90;;;;;;6204965;23;20004;-84
2022/11/08 04:34:05;;;;;;;6.28;1.70;;;12.80;99.90;;;;;;6228492;23;20015;-85
2022/11/08 04:36:32;;;;;;;8.00;1.70;;;12.80;99.90;;;;;;6202217;23;20336;-84
2022/11/08 04:38:58;;;;;;;9.00;2.15;;;12.80;99.90;;;;;;6184608;23;20037;-85
2022/11/08 04:41:25;;;;;;;7.25;1.65;;;12.70;99.90;;;;;;6154576;23;20041;-85
2022/11/08 04:43:53;;;;;;;6.88;1.70;;;12.70;99.90;;;;;;6130034;23;20014;-84
2022/11/08 04:46:26;;;;;;;8.00;1.63;;;12.70;99.90;;;;;;6156071;23;20013;-85
2022/11/08 04:48:55;;;;;;;10.15;2.00;;;12.70;99.90;;;;;;6130005;23;20010;-84
2022/11/08 04:51:26;;;;;;;4.95;1.20;;;12.60;99.90;;;;;;6155903;23;20013;-84
2022/11/08 04:53:53;;;;;;;8.38;1.80;;;12.70;99.90;;;;;;6154483;23;20337;-84
2022/11/08 04:56:20;;;;;;;6.65;1.83;;;12.60;99.90;;;;;;6154592;23;20059;-84
2022/11/08 04:58:52;;;;;;;7.78;1.70;;;12.60;99.90;;;;;;6154536;23;20436;-84
2022/11/08 05:01:20;;;;;;;7.88;2.67;;;12.60;99.90;;;;;;6154411;23;20410;-84
2022/11/08 05:03:47;;;;;;;7.82;2.10;;;12.60;99.90;;;;;;6155915;23;20002;-84
2022/11/08 05:06:18;;;;;;;4.68;1.75;;;12.60;99.90;;;;;;6154293;23;20008;-84
2022/11/08 05:08:44;;;;;;;7.47;2.28;;;12.70;99.90;;;;;;6130697;23;20362;-84
2022/11/08 05:11:13;;;;;;;5.15;1.90;;;12.70;99.90;;;;;;6155908;23;20002;-84
2022/11/08 05:13:39;;;;;;;6.30;1.73;;;12.60;99.90;;;;;;6155875;23;20329;-84
2022/11/08 05:16:08;;;;;;;5.82;1.50;;;12.60;99.90;;;;;;6155827;23;20014;-84
2022/11/08 05:18:37;;;;;;;5.35;1.70;;;12.60;99.90;;;;;;6154822;23;20013;-83
2022/11/08 05:23:49;;;;;;;9.38;1.73;;;12.60;99.90;;;;;;6154688;23;20067;-84
2022/11/08 05:26:16;;;;;;;9.27;2.40;;;12.60;99.90;;;;;;6154385;23;20103;-84
2022/11/08 05:28:41;;;;;;;9.32;1.60;;;12.60;99.90;;;;;;6132196;23;20001;-85
2022/11/08 05:31:08;;;;;;;5.07;1.90;;;12.70;99.90;;;;;;6130412;23;20064;-81
2022/11/08 05:33:34;;;;;;;9.57;1.60;;;12.60;99.90;;;;;;6156041;23;20005;-81
2022/11/08 05:36:04;;;;;;;8.57;2.03;;;12.60;99.90;;;;;;6157539;23;20009;-81
2022/11/08 05:38:30;;;;;;;5.63;1.70;;;12.60;99.90;;;;;;6134557;23;20040;-81
2022/11/08 05:41:02;;;;;;;4.85;1.65;;;12.60;99.90;;;;;;6160445;23;20020;-81
2022/11/08 05:43:28;;;;;;;5.25;1.90;;;12.60;99.90;;;;;;6186926;23;20306;-81
2022/11/08 05:45:53;;;;;;;5.13;1.50;;;12.60;99.90;;;;;;6185420;23;20028;-81
2022/11/08 05:48:19;;;;;;;6.47;1.70;;;12.60;99.90;;;;;;6185598;23;20005;-83
2022/11/08 05:50:45;;;;;;;9.07;1.75;;;12.60;99.90;;;;;;6135940;23;20460;-84
2022/11/08 05:53:11;;;;;;;4.93;1.40;;;12.60;99.90;;;;;;6160486;23;20016;-84
2022/11/08 05:55:36;;;;;;;6.68;1.92;;;12.60;99.90;;;;;;6160452;23;20019;-83
2022/11/08 05:58:02;;;;;;;8.13;2.10;;;12.60;99.90;;;;;;6186705;23;20016;-84
2022/11/08 06:00:29;;;;;;;7.45;2.00;;;12.60;99.90;;;;;;6159433;23;20016;-84
2022/11/08 06:02:55;;;;;;;6.53;1.70;;;12.50;99.90;;;;;;6185887;23;20059;-81
2022/11/08 06:05:22;;;;;;;6.93;1.70;;;12.50;99.90;;;;;;6201364;23;20006;-81
2022/11/08 06:07:48;;;;;;;7.00;2.00;;;12.50;99.90;;;;;;6201657;23;20001;-81
2022/11/08 06:10:14;;;;;;;7.03;2.25;;;12.50;99.90;;;;;;6198711;23;20012;-80
2022/11/08 06:12:40;;;;;;;4.88;2.13;;;12.50;99.90;;;;;;6171440;23;20016;-81
2022/11/08 06:15:06;;;;;;;6.28;1.88;;;12.50;99.90;;;;;;6202436;23;20009;-80
2022/11/08 06:17:33;;;;;;;5.65;1.67;;;12.40;99.90;;;;;;6171774;23;20090;-80
2022/11/08 06:19:58;;;;;;;6.10;1.90;;;12.40;99.90;;;;;;6172091;23;20096;-84
2022/11/08 06:22:24;;;;;;;4.65;1.55;;;12.40;99.90;;;;;;6160571;23;20366;-84
2022/11/08 06:24:50;;;;;;;5.65;1.90;;;12.40;99.90;;;;;;6185717;23;20055;-84
2022/11/08 06:27:16;;;;;;;7.43;1.90;;;12.40;99.90;;;;;;6161005;23;20076;-83
2022/11/08 06:29:41;;;;;;;5.95;1.70;;;12.40;99.90;;;;;;6161086;23;20001;-83
2022/11/08 06:32:09;;;;;;;5.18;2.15;;;12.40;99.90;;;;;;6160586;23;20092;-84
2022/11/08 06:34:34;;;;;;;5.20;1.70;;;12.40;99.90;;;;;;6186976;23;20004;-84
2022/11/08 06:37:00;;;;;;;5.40;1.90;;;12.40;99.90;;;;;;6160718;23;20052;-80
2022/11/08 06:39:26;;;;;;;8.65;2.17;;;12.40;99.90;;;;;;6184499;23;20068;-80
2022/11/08 06:41:52;;;;;;;6.20;1.92;;;12.30;99.90;;;;;;6186130;23;20009;-80
2022/11/08 06:44:18;;;;;;;7.13;2.10;;;12.40;99.90;;;;;;6184527;23;20444;-80
2022/11/08 06:46:43;;;;;;;9.07;2.42;;;12.40;99.90;;;;;;6159264;23;20005;-80
2022/11/08 06:49:09;;;;;;;6.47;2.67;;;12.40;99.90;;;;;;6184930;23;20005;-79
2022/11/08 06:51:35;;;;;;;4.68;1.83;;;12.40;99.90;;;;;;6134562;23;20456;-79
2022/11/08 06:54:02;;;;;;;4.82;1.92;;;12.40;99.90;;;;;;6184195;23;20089;-84
2022/11/08 06:56:28;;;;;;;6.38;1.92;;;12.40;99.90;;;;;;6159444;23;20016;-84
2022/11/08 06:58:54;;;;;;;6.97;2.28;;;12.40;99.90;;;;;;6159275;23;20012;-84
2022/11/08 07:01:20;;;;;;;6.47;1.98;;;12.40;99.90;;;;;;6184737;23;20005;-84
2022/11/08 07:03:45;;;;;;;7.25;2.70;;;12.30;99.90;;;;;;6187316;23;20333;-84
2022/11/08 07:06:11;;;;;;;5.43;2.10;;;12.40;99.90;;;;;;6185427;23;20051;-84
2022/11/08 07:08:37;;;;;;;5.18;2.30;;;12.40;99.90;;;;;;6185251;23;20460;-85
2022/11/08 07:11:03;;;;;;;5.70;2.00;;;12.40;99.90;;;;;;6185249;23;20111;-84
2022/11/08 07:13:29;;;;;;;5.60;2.28;;;12.30;99.90;;;;;;6185178;23;20333;-84
2022/11/08 07:15:58;;;;;;;6.63;2.08;;;12.40;99.90;;;;;;6186779;23;20013;-84
2022/11/08 07:18:25;;;;;;;6.97;2.20;;;12.40;99.90;;;;;;6185054;23;20096;-84
2022/11/08 07:20:51;;;;;;;6.43;2.08;;;12.30;99.90;;;;;;6185044;23;20009;-84
2022/11/08 07:23:17;;;;;;;5.80;1.95;;;12.40;99.90;;;;;;6185016;23;20012;-84
2022/11/08 07:25:43;;;;;;;5.30;1.50;;;12.30;99.90;;;;;;6160110;23;20009;-84
2022/11/08 07:28:16;;;;;;;8.38;1.90;;;12.30;99.90;;;;;;6160289;23;20032;-84
2022/11/08 07:30:43;;;;;;;5.72;1.80;;;12.30;99.90;;;;;;6186838;23;20005;-84
2022/11/08 07:33:08;;;;;;;5.25;2.00;;;12.30;99.90;;;;;;6185345;23;20557;-84
2022/11/08 07:35:34;;;;;;;4.60;1.60;;;12.30;99.90;;;;;;6160090;23;20009;-84
2022/11/08 07:38:00;;;;;;;8.35;2.30;;;12.30;99.90;;;;;;6160429;23;20001;-84
2022/11/08 07:40:26;;;;;;;7.15;1.70;;;12.40;99.90;;;;;;6186582;23;20340;-84
2022/11/08 07:42:51;;;;;;;4.40;1.40;;;12.40;99.90;;;;;;6185600;23;20013;-84
2022/11/08 07:45:40;;;;;;;7.32;2.00;;;12.40;99.90;;;;;;6159861;23;20012;-79
2022/11/08 07:48:08;;;;;;;6.38;1.80;;;12.40;99.90;;;;;;6187092;23;20001;-79
2022/11/08 07:50:33;;;;;;;5.82;2.40;;;12.40;99.90;;;;;;6159755;23;20028;-80
2022/11/08 07:53:00;;;;;;;5.40;1.67;;;12.50;99.90;;;;;;6184622;23;20421;-80
2022/11/08 07:55:26;;;;;;;6.22;1.52;;;12.50;99.90;;;;;;6185300;23;20012;-80
2022/11/08 07:58:00;;;;;;;6.00;2.15;;;12.50;99.90;;;;;;6198743;23;20008;-80
2022/11/08 08:00:26;;;;;;;5.20;1.85;;;12.50;99.90;;;;;;6194290;23;20009;-84
2022/11/08 08:02:59;;;;;;;4.78;1.60;;;12.60;99.90;;;;;;6160173;23;20058;-84
2022/11/08 08:05:27;;;;;;;5.30;1.80;;;12.60;99.90;;;;;;6167472;23;20021;-84
2022/11/08 08:07:59;;;;;;;5.82;1.83;;;12.70;99.90;;;;;;6167652;23;20424;-84
2022/11/08 08:10:26;;;;;;;5.25;1.70;;;12.70;99.90;;;;;;6165512;23;20100;-83
2022/11/08 08:12:52;;;;;;;7.07;1.80;;;12.70;99.90;;;;;;6166688;23;19997;-83
2022/11/08 08:15:18;;;;;;;5.63;1.95;;;12.70;99.90;;;;;;6191832;23;20028;-84
2022/11/08 08:17:44;;;;;;;4.45;1.70;;;12.80;99.90;;;;;;6162788;23;20425;-84
2022/11/08 08:20:10;;;;;;;3.88;1.42;;;12.80;99.90;;;;;;6136222;23;20089;-84
2022/11/08 08:22:36;;;;;;;3.70;1.48;;;12.80;99.90;;;;;;6159871;23;20381;-84
2022/11/08 08:25:01;;;;;;;2.83;1.40;;;12.80;99.90;;;;;;6159935;23;20006;-84
2022/11/08 08:27:28;;;;;;;5.32;1.55;;;12.80;99.90;;;;;;6184524;23;20328;-85
2022/11/08 08:29:54;;;;;;;6.82;1.52;;;12.90;99.90;;;;;;6134105;23;20092;-84
2022/11/08 08:32:20;;;;;;;4.63;1.40;;;12.90;99.90;;;;;;6183297;23;20046;-85
2022/11/08 08:34:46;;;;;;;3.75;1.42;;;13.00;99.90;;;;;;6183569;23;20340;-81
2022/11/08 08:37:14;;;;;;;3.92;1.38;;;13.00;99.90;;;;;;6183466;23;20017;-82
2022/11/08 08:39:40;;;;;;;4.43;1.30;;;13.10;99.90;;;;;;6157651;23;20044;-84
2022/11/08 08:42:06;;;;;;;5.70;1.40;;;13.10;99.90;;;;;;6156675;23;20097;-85
2022/11/08 08:44:31;;;;;;;2.78;1.20;;;13.20;99.90;;;;;;6182636;23;20025;-85
2022/11/08 08:46:57;;;;;;;2.60;1.30;;;13.20;99.90;;;;;;6183977;23;20005;-80
2022/11/08 08:49:23;;;;;;;5.25;1.55;;;13.30;99.90;;;;;;6185606;23;20384;-79
2022/11/08 08:51:48;;;;;;;2.67;1.35;;;13.30;99.90;;;;;;6161328;23;20016;-80
2022/11/08 08:54:14;;;;;;;4.03;1.50;;;13.30;99.90;;;;;;6135927;23;20345;-80
2022/11/08 08:56:40;;;;;;;6.68;1.65;;;13.30;99.90;;;;;;6187147;23;20485;-80
2022/11/08 08:59:06;;;;;;;3.28;1.75;;;13.40;99.90;;;;;;6137277;23;20015;-80
2022/11/08 09:01:38;;;;;;;2.95;1.40;;;13.40;99.90;;;;;;6184408;23;20005;-85
2022/11/08 09:04:03;;;;;;;3.60;1.70;;;13.40;99.90;;;;;;6159377;23;20005;-86
2022/11/08 09:06:29;;;;;;;5.00;1.70;;;13.40;99.90;;;;;;6159793;23;20302;-85
2022/11/08 09:08:55;;;;;;;5.05;1.50;;;13.40;99.90;;;;;;6160329;23;20001;-80
2022/11/08 09:11:20;;;;;;;4.57;1.80;;;13.50;99.90;;;;;;6184189;23;20029;-80
2022/11/08 09:13:46;;;;;;;4.80;1.92;;;13.50;99.90;;;;;;6185298;23;20032;-80
2022/11/08 09:16:13;;;;;;;5.88;2.17;;;13.50;99.90;;;;;;6135840;23;20063;-84
2022/11/08 09:18:48;;;;;;;4.32;1.45;;;13.50;99.90;;;;;;6185134;23;20009;-84
2022/11/08 09:21:13;;;;;;;5.15;1.90;;;13.50;99.90;;;;;;6159951;23;20017;-84
2022/11/08 09:23:41;;;;;;;6.93;1.75;;;13.60;99.90;;;;;;6160049;23;20104;-81
2022/11/08 09:26:07;;;;;;;4.72;1.77;;;13.50;99.90;;;;;;6184830;23;20039;-80
2022/11/08 09:28:34;;;;;;;5.03;2.40;;;13.50;99.90;;;;;;6159988;23;20005;-85
2022/11/08 09:31:06;;;;;;;6.60;2.50;;;13.50;99.90;;;;;;6159969;23;20437;-86
2022/11/08 09:33:32;;;;;;;5.75;1.67;;;13.60;99.90;;;;;;6160302;23;20032;-85
2022/11/08 09:36:00;;;;;;;5.95;1.92;;;13.60;99.90;;;;;;6159891;23;20005;-85
2022/11/08 09:38:25;;;;;;;6.90;1.80;;;13.60;99.90;;;;;;6186718;23;20005;-85
2022/11/08 09:41:06;;;;;;;3.90;1.67;;;13.60;99.90;;;;;;6155907;23;20357;-82
2022/11/08 09:43:51;;;;;;;3.95;1.63;;;13.60;99.90;;;;;;6155916;23;20006;-83
2022/11/08 09:46:41;;;;;;;5.65;2.00;;;13.70;99.90;;;;;;6156009;23;20005;-82
2022/11/08 09:49:19;;;;;;;4.72;1.83;;;13.70;99.90;;;;;;6131304;23;20362;-82
2022/11/08 09:51:46;;;;;;;6.28;1.75;;;13.70;99.90;;;;;;6157453;23;20033;-83
2022/11/08 09:54:20;;;;;;;4.18;1.63;;;13.80;99.90;;;;;;6157671;23;20008;-84
2022/11/08 09:56:46;;;;;;;3.00;1.70;;;13.80;99.90;;;;;;6156221;23;20416;-84
2022/11/08 09:59:36;;;;;;;4.47;2.00;;;13.80;99.90;;;;;;6132006;23;20060;-83
2022/11/08 10:02:16;;;;;;;5.82;1.70;;;13.90;99.90;;;;;;6131540;23;20085;-83
2022/11/08 10:04:41;;;;;;;4.88;1.63;;;13.90;99.90;;;;;;6131676;23;20008;-83
2022/11/08 10:07:32;;;;;;;4.40;1.58;;;13.90;99.90;;;;;;6131576;23;20010;-83
2022/11/08 10:10:16;;;;;;;3.10;1.52;;;13.90;99.90;;;;;;6158138;23;19998;-83
2022/11/08 10:13:00;;;;;;;5.07;1.65;;;14.00;99.90;;;;;;6158076;23;20029;-84
2022/11/08 10:15:39;;;;;;;5.95;1.90;;;14.00;99.90;;;;;;6157212;23;20002;-83
2022/11/08 10:18:20;;;;;;;7.78;2.60;;;14.00;99.90;;;;;;6131003;23;20009;-83
2022/11/08 10:21:14;;;;;;;4.38;1.45;;;14.10;99.90;;;;;;6157196;23;20057;-83
2022/11/08 10:23:55;;;;;;;5.90;1.75;;;14.10;99.90;;;;;;6157325;23;19998;-83
2022/11/08 10:26:25;;;;;;;3.42;1.77;;;14.10;99.90;;;;;;6156738;23;20005;-83
2022/11/08 10:28:57;;;;;;;5.35;1.58;;;14.10;99.90;;;;;;6155591;23;20006;-83
2022/11/08 10:31:27;;;;;;;6.57;2.20;;;14.20;99.90;;;;;;6131154;23;20378;-81
2022/11/08 10:33:54;;;;;;;5.70;1.65;;;14.20;99.90;;;;;;6155454;23;20384;-81
2022/11/08 10:36:42;;;;;;;4.22;1.70;;;14.20;99.90;;;;;;6130846;23;20014;-81
2022/11/08 10:39:07;;;;;;;6.07;2.10;;;14.30;99.90;;;;;;6167233;23;20013;-83
2022/11/08 10:41:47;;;;;;;3.83;1.70;;;14.30;99.90;;;;;;6187021;23;20012;-84
2022/11/08 10:44:18;;;;;;;4.55;1.80;;;14.30;99.90;;;;;;6186978;23;20003;-83
2022/11/08 10:47:01;;;;;;;4.90;2.03;;;14.40;99.90;;;;;;6160574;23;19997;-85
2022/11/08 10:49:30;;;;;;;4.68;1.65;;;14.40;99.90;;;;;;6160495;23;19997;-86
2022/11/08 10:51:59;;;;;;;6.88;1.67;;;14.40;99.90;;;;;;6160406;23;20345;-86
2022/11/08 10:54:54;;;;;;;4.93;1.90;;;14.50;99.90;;;;;;6160455;23;20001;-85
2022/11/08 10:57:30;;;;;;;4.53;1.90;;;14.50;99.90;;;;;;6160403;23;20008;-86
2022/11/08 11:00:17;;;;;;;5.10;2.35;;;14.50;99.90;;;;;;6160954;23;20019;-86
2022/11/08 11:02:47;;;;;;;6.22;1.98;;;14.50;99.90;;;;;;6160283;23;20425;-86
2022/11/08 11:05:18;;;;;;;5.10;1.60;;;14.60;99.90;;;;;;6187338;23;20021;-83
2022/11/08 11:08:07;;;;;;;6.95;2.15;;;14.60;99.90;;;;;;6159988;23;20001;-83
2022/11/08 11:10:36;;;;;;;7.43;2.47;;;14.60;99.80;;;;;;6169005;23;20028;-83
2022/11/08 11:13:22;;;;;;;3.00;1.90;;;14.60;99.90;;;;;;6160073;23;20001;-83
2022/11/08 11:15:51;;;;;;;6.68;2.63;;;14.60;99.90;;;;;;6160697;23;20005;-83
2022/11/08 11:18:20;;;;;;;5.28;2.50;;;14.60;99.90;;;;;;6159930;23;20005;-82
2022/11/08 11:21:06;;;;;;;6.40;1.98;;;14.70;99.90;;;;;;6160648;23;20416;-83
2022/11/08 11:23:53;;;;;;;4.35;2.20;;;14.70;99.90;;;;;;6186404;23;20068;-83
2022/11/08 11:26:29;;;;;;;4.75;1.95;;;14.70;99.90;;;;;;6186263;23;20001;-82
2022/11/08 11:29:07;;;;;;;5.53;1.77;;;14.80;99.90;;;;;;6159949;23;20408;-82
2022/11/08 11:31:37;;;;;;;5.70;2.00;;;14.80;99.90;;;;;;6160203;23;20096;-82
2022/11/08 11:34:18;;;;;;;5.17;2.77;;;14.80;99.90;;;;;;6160019;23;20005;-82
2022/11/08 11:36:51;;;;;;;4.13;1.60;;;14.90;99.90;;;;;;6160842;23;20012;-80
2022/11/08 11:39:53;;;;;;;5.10;2.05;;;14.90;99.90;;;;;;6169107;23;20040;-81
2022/11/08 11:42:25;;;;;;;4.47;1.80;;;15.00;99.60;;;;;;6196266;23;20001;-81
2022/11/08 11:45:18;;;;;;;5.80;1.60;;;15.00;99.50;;;;;;6170015;23;20001;-81
2022/11/08 11:47:53;;;;;;;6.88;2.00;;;15.10;99.60;;;;;;6164998;23;20008;-81
2022/11/08 11:50:26;;;;;;;5.43;1.73;;;15.10;99.60;;;;;;6198340;23;20325;-81
2022/11/08 11:52:54;;;;;;;4.28;1.80;;;15.10;99.70;;;;;;6193198;23;20005;-83
2022/11/08 11:55:46;;;;;;;4.22;1.67;;;15.10;99.80;;;;;;6158701;23;20421;-83
2022/11/08 11:58:30;;;;;;;4.68;1.40;;;15.10;99.50;;;;;;6129590;23;20416;-83
2022/11/08 12:01:02;;;;;;;5.55;2.10;;;15.10;99.40;;;;;;6159368;23;20020;-83
2022/11/08 12:03:52;;;;;;;4.85;1.70;;;15.10;99.20;;;;;;6159393;23;19997;-83
2022/11/08 12:06:43;;;;;;;3.15;1.60;;;15.20;99.60;;;;;;6185799;23;20072;-83
2022/11/08 12:09:29;;;;;;;3.53;1.42;;;15.30;99.60;;;;;;6143025;23;20028;-83
2022/11/08 12:12:12;;;;;;;7.15;1.58;;;15.30;99.30;;;;;;6159760;23;20012;-81
2022/11/08 12:14:43;;;;;;;4.65;1.42;;;15.30;98.80;;;;;;6159581;23;20001;-80
2022/11/08 12:17:33;;;;;;;4.85;1.58;;;15.30;99.10;;;;;;6159506;23;20334;-81
2022/11/08 12:20:23;;;;;;;4.70;1.55;;;15.40;99.30;;;;;;6159566;23;20428;-81
2022/11/08 12:23:10;;;;;;;8.82;1.75;;;15.40;99.20;;;;;;6159325;23;20421;-81
2022/11/08 12:25:48;;;;;;;6.63;1.75;;;15.50;98.80;;;;;;6159349;23;20011;-81
2022/11/08 12:28:40;;;;;;;7.35;2.00;;;15.50;98.50;;;;;;6185935;23;20024;-81
2022/11/08 12:31:33;;;;;;;5.72;1.73;;;15.50;98.80;;;;;;6159378;23;20072;-81
2022/11/08 12:34:21;;;;;;;4.13;1.58;;;15.50;98.60;;;;;;6185943;23;20005;-81
2022/11/08 12:37:14;;;;;;;3.88;1.48;;;15.60;98.60;;;;;;6159919;23;20405;-81
2022/11/08 12:39:56;;;;;;;5.60;1.50;;;15.60;98.60;;;;;;6176527;23;20025;-81
2022/11/08 12:42:41;;;;;;;5.20;1.73;;;15.60;98.60;;;;;;6191031;23;20420;-81
2022/11/08 12:45:09;;;;;;;4.93;1.90;;;15.60;98.50;;;;;;6218343;23;20491;-83
2022/11/08 12:47:52;;;;;;;7.07;1.77;;;15.70;98.60;;;;;;6216799;23;20064;-83
2022/11/08 12:50:36;;;;;;;7.53;1.75;;;15.70;98.40;;;;;;6191642;23;20001;-83
2022/11/08 12:53:41;;;;;;;6.25;1.50;;;15.70;98.60;;;;;;6191919;23;20001;-83
2022/11/08 12:56:17;;;;;;;2.92;1.38;;;15.70;98.40;;;;;;6191718;23;20021;-82
2022/11/08 12:58:45;;;;;;;3.88;1.40;;;15.70;98.30;;;;;;6191905;23;20420;-82
2022/11/08 13:01:13;;;;;;;4.05;1.60;;;15.60;98.40;;;;;;6222147;23;20004;-83
2022/11/08 13:03:45;;;;;;;5.00;1.90;;;15.60;98.50;;;;;;6195536;23;20063;-83
2022/11/08 13:06:25;;;;;;;4.47;1.40;;;15.60;98.20;;;;;;6219619;23;20057;-83
2022/11/08 13:09:05;;;;;;;4.85;2.03;;;15.60;98.30;;;;;;6196142;23;19997;-83
2022/11/08 13:11:46;;;;;;;5.50;1.50;;;15.70;98.40;;;;;;6221687;23;20009;-82
2022/11/08 13:14:15;;;;;;;7.55;1.92;;;15.70;98.40;;;;;;6222627;23;20005;-85
2022/11/08 13:16:43;;;;;;;3.45;1.52;;;15.70;98.40;;;;;;6196218;23;20008;-83
2022/11/08 13:19:51;;;;;;;4.50;1.45;;;15.70;98.40;;;;;;6171985;23;20008;-83
2022/11/08 13:22:30;;;;;;;3.88;1.60;;;15.70;98.50;;;;;;6197573;23;20372;-84
2022/11/08 13:25:19;;;;;;;4.20;2.05;;;15.70;98.40;;;;;;6221566;23;20005;-83
2022/11/08 13:27:47;;;;;;;3.72;1.65;;;15.70;98.70;;;;;;6173420;23;20429;-83